Time;durP1;ratioP1;P1;durP2;ratioP2;P2;SDS_P1;SDS_P2;PMS_P1;PMS_P2;Temp;Humidity;BMP_temperature;BMP_pressure;BME280_temperature;BME280_humidity;BME280_pressure;Samples;Min_cycle;Max_cycle;Signal;HPM_P1;HPM_P2
2021/05/15 00:02:16;;;;;;;27.90;13.27;;;8.90;99.90;;;;;;4969872;28;20031;-62
2021/05/15 00:04:41;;;;;;;27.85;12.43;;;8.90;99.90;;;;;;4969305;28;20034;-62
2021/05/15 00:07:07;;;;;;;32.58;14.50;;;9.00;99.90;;;;;;4970713;28;20567;-62
2021/05/15 00:09:33;;;;;;;32.97;13.88;;;9.00;99.90;;;;;;4967647;28;20026;-62
2021/05/15 00:11:59;;;;;;;29.85;12.75;;;9.00;99.90;;;;;;4968414;28;20031;-62
2021/05/15 00:14:26;;;;;;;25.35;13.25;;;8.90;99.90;;;;;;4968186;28;20134;-62
2021/05/15 00:16:52;;;;;;;28.05;12.57;;;8.90;99.90;;;;;;4969602;28;20608;-61
2021/05/15 00:19:18;;;;;;;29.25;12.63;;;9.00;99.90;;;;;;4971243;28;20412;-62
2021/05/15 00:21:44;;;;;;;35.97;11.68;;;8.90;99.90;;;;;;4970103;28;20046;-62
2021/05/15 00:24:10;;;;;;;40.13;13.07;;;9.00;99.90;;;;;;4969269;28;20884;-62
2021/05/15 00:26:36;;;;;;;28.17;13.52;;;8.90;99.90;;;;;;4968692;28;20632;-62
2021/05/15 00:29:02;;;;;;;34.22;12.25;;;8.90;99.90;;;;;;4971094;28;20157;-61
2021/05/15 00:31:28;;;;;;;32.60;12.50;;;8.90;99.90;;;;;;4968279;28;20115;-61
2021/05/15 00:33:54;;;;;;;24.63;11.02;;;8.90;99.90;;;;;;4971312;28;20110;-61
2021/05/15 00:36:20;;;;;;;32.05;11.63;;;8.90;99.90;;;;;;4967591;28;20399;-62
2021/05/15 00:38:45;;;;;;;27.80;11.20;;;8.90;99.90;;;;;;4969922;28;20326;-61
2021/05/15 00:41:11;;;;;;;28.80;11.25;;;8.90;99.90;;;;;;4968914;28;20498;-62
2021/05/15 00:43:45;;;;;;;27.63;13.05;;;8.90;99.90;;;;;;4968610;28;20027;-62
2021/05/15 00:46:12;;;;;;;24.50;10.18;;;8.80;99.90;;;;;;4966793;28;20039;-62
2021/05/15 00:48:38;;;;;;;19.33;9.13;;;8.80;99.90;;;;;;4968695;28;20034;-62
2021/05/15 00:51:04;;;;;;;21.67;10.10;;;8.80;99.90;;;;;;4968802;28;20569;-62
2021/05/15 00:53:30;;;;;;;24.90;8.65;;;8.80;99.90;;;;;;4968623;28;20034;-61
2021/05/15 00:55:56;;;;;;;20.25;9.27;;;8.80;99.90;;;;;;4968364;28;20065;-62
2021/05/15 00:58:23;;;;;;;19.55;7.97;;;8.80;99.90;;;;;;4969415;28;20044;-61
2021/05/15 01:00:49;;;;;;;20.33;9.73;;;8.80;99.90;;;;;;4968904;28;20065;-61
2021/05/15 01:03:15;;;;;;;18.52;8.32;;;8.80;99.90;;;;;;4969607;28;20026;-61
2021/05/15 01:05:41;;;;;;;15.52;8.27;;;8.80;99.90;;;;;;4966629;28;20041;-61
2021/05/15 01:08:07;;;;;;;20.98;9.07;;;8.70;99.90;;;;;;4969295;28;20041;-62
2021/05/15 01:10:32;;;;;;;20.70;8.60;;;8.70;99.90;;;;;;4968199;28;20484;-62
2021/05/15 01:12:58;;;;;;;21.90;10.20;;;8.70;99.90;;;;;;4967482;28;20065;-62
2021/05/15 01:15:27;;;;;;;22.77;10.10;;;8.70;99.90;;;;;;4969252;28;20571;-61
2021/05/15 01:17:54;;;;;;;17.50;8.98;;;8.70;99.90;;;;;;4967032;28;20295;-62
2021/05/15 01:20:22;;;;;;;19.13;8.48;;;8.70;99.90;;;;;;4967816;28;20034;-62
2021/05/15 01:22:49;;;;;;;27.48;9.65;;;8.70;99.90;;;;;;4967307;28;20045;-62
2021/05/15 01:25:16;;;;;;;25.17;10.52;;;8.70;99.90;;;;;;4970013;28;20097;-62
2021/05/15 01:27:42;;;;;;;32.97;12.05;;;8.70;99.90;;;;;;4968177;28;20041;-62
2021/05/15 01:30:10;;;;;;;22.17;11.25;;;8.70;99.90;;;;;;4969072;28;20476;-61
2021/05/15 01:32:38;;;;;;;22.98;11.85;;;8.70;99.90;;;;;;4966776;28;20132;-61
2021/05/15 01:35:06;;;;;;;24.20;10.10;;;8.70;99.90;;;;;;4968939;28;20080;-61
2021/05/15 01:37:31;;;;;;;17.45;9.98;;;8.70;99.90;;;;;;4967793;28;20113;-62
2021/05/15 01:39:57;;;;;;;27.85;10.10;;;8.70;99.90;;;;;;4966759;28;20027;-62
2021/05/15 01:42:23;;;;;;;23.48;9.63;;;8.80;99.90;;;;;;4967007;28;20034;-62
2021/05/15 01:44:49;;;;;;;19.08;7.88;;;8.80;99.90;;;;;;4967931;28;20030;-61
2021/05/15 01:47:15;;;;;;;20.42;9.05;;;8.70;99.90;;;;;;4964963;28;20038;-62
2021/05/15 01:49:41;;;;;;;18.48;9.13;;;8.70;99.90;;;;;;4967005;28;20026;-61
2021/05/15 01:52:06;;;;;;;15.93;8.90;;;8.70;99.90;;;;;;4968029;28;20240;-62
2021/05/15 01:54:32;;;;;;;18.63;9.77;;;8.70;99.90;;;;;;4967059;28;20144;-62
2021/05/15 01:56:58;;;;;;;15.80;9.18;;;8.70;99.90;;;;;;4968436;28;20042;-62
2021/05/15 01:59:24;;;;;;;17.67;9.32;;;8.70;99.90;;;;;;4966645;28;20034;-62
2021/05/15 02:01:50;;;;;;;16.13;8.52;;;8.70;99.90;;;;;;4968390;28;20405;-62
2021/05/15 02:04:15;;;;;;;15.68;8.88;;;8.70;99.90;;;;;;4967859;28;20435;-62
2021/05/15 02:06:41;;;;;;;18.45;10.57;;;8.70;99.90;;;;;;4967868;28;20030;-61
2021/05/15 02:09:07;;;;;;;18.73;9.57;;;8.70;99.90;;;;;;4963874;28;20054;-61
2021/05/15 02:11:34;;;;;;;20.92;9.02;;;8.70;99.90;;;;;;4966197;28;20053;-62
2021/05/15 02:14:00;;;;;;;15.93;9.18;;;8.70;99.90;;;;;;4967720;28;20046;-61
2021/05/15 02:16:26;;;;;;;22.35;10.18;;;8.70;99.90;;;;;;4967859;28;20046;-62
2021/05/15 02:18:51;;;;;;;14.63;8.20;;;8.70;99.90;;;;;;4967404;28;20032;-62
2021/05/15 02:21:17;;;;;;;17.45;9.32;;;8.70;99.90;;;;;;4966731;28;20042;-61
2021/05/15 02:23:43;;;;;;;15.93;8.85;;;8.70;99.90;;;;;;4962799;28;20559;-62
2021/05/15 02:26:09;;;;;;;15.57;8.13;;;8.70;99.90;;;;;;4966067;28;20065;-62
2021/05/15 02:28:35;;;;;;;19.48;8.82;;;8.70;99.90;;;;;;4965423;28;20038;-62
2021/05/15 02:31:01;;;;;;;16.85;7.97;;;8.60;99.90;;;;;;4966133;28;20670;-62
2021/05/15 02:33:27;;;;;;;23.83;9.00;;;8.70;99.90;;;;;;4965099;28;20574;-62
2021/05/15 02:35:53;;;;;;;17.20;8.43;;;8.70;99.90;;;;;;4967244;28;20038;-62
2021/05/15 02:38:20;;;;;;;20.05;8.13;;;8.70;99.90;;;;;;4966931;28;20048;-61
2021/05/15 02:40:47;;;;;;;22.73;8.15;;;8.70;99.90;;;;;;4966878;28;20057;-61
2021/05/15 02:43:16;;;;;;;21.33;8.95;;;8.70;99.90;;;;;;4967357;28;20073;-62
2021/05/15 02:45:43;;;;;;;19.83;9.68;;;8.70;99.90;;;;;;4965796;28;20145;-61
2021/05/15 02:48:09;;;;;;;19.88;9.10;;;8.70;99.90;;;;;;4964434;28;20031;-62
2021/05/15 02:50:35;;;;;;;16.73;9.48;;;8.70;99.90;;;;;;4965313;28;20089;-62
2021/05/15 02:53:01;;;;;;;21.63;10.15;;;8.70;99.90;;;;;;4967032;28;20494;-62
2021/05/15 02:55:28;;;;;;;18.80;9.23;;;8.80;99.90;;;;;;4965539;28;20031;-62
2021/05/15 02:57:54;;;;;;;17.52;8.57;;;8.70;99.90;;;;;;4963930;28;20027;-63
2021/05/15 03:00:23;;;;;;;16.80;9.18;;;8.70;99.90;;;;;;4965260;28;20503;-61
2021/05/15 03:02:50;;;;;;;13.90;9.70;;;8.80;99.90;;;;;;4965938;28;20089;-62
2021/05/15 03:05:18;;;;;;;17.15;8.73;;;8.80;99.90;;;;;;4966172;28;20163;-61
2021/05/15 03:07:44;;;;;;;19.13;9.55;;;8.80;99.90;;;;;;4966814;28;20608;-62
2021/05/15 03:10:12;;;;;;;17.65;8.80;;;8.80;99.90;;;;;;4961423;28;20031;-62
2021/05/15 03:12:38;;;;;;;19.08;8.32;;;8.80;99.90;;;;;;4960637;28;20041;-61
2021/05/15 03:15:07;;;;;;;14.45;7.25;;;8.80;99.90;;;;;;4957547;28;20889;-61
2021/05/15 03:17:35;;;;;;;19.57;9.43;;;8.60;99.90;;;;;;4964152;28;20058;-62
2021/05/15 03:20:01;;;;;;;16.73;8.38;;;8.60;99.90;;;;;;4968519;28;20042;-62
2021/05/15 03:22:27;;;;;;;15.85;8.10;;;8.70;99.90;;;;;;4965879;28;20404;-61
2021/05/15 03:24:52;;;;;;;44.03;11.07;;;8.70;99.90;;;;;;4968193;28;20042;-62
2021/05/15 03:27:18;;;;;;;15.45;9.85;;;8.70;99.90;;;;;;4969509;28;20050;-62
2021/05/15 03:29:44;;;;;;;20.00;8.77;;;8.70;99.90;;;;;;4969018;28;20030;-61
2021/05/15 03:32:10;;;;;;;17.17;8.77;;;8.70;99.90;;;;;;4970350;28;20039;-62
2021/05/15 03:34:36;;;;;;;16.33;7.43;;;8.70;99.90;;;;;;4970627;28;20034;-62
2021/05/15 03:37:02;;;;;;;19.33;8.20;;;8.80;99.90;;;;;;4970535;28;20105;-62
2021/05/15 03:39:28;;;;;;;21.45;9.23;;;8.80;99.90;;;;;;4969154;28;20471;-62
2021/05/15 03:41:54;;;;;;;12.25;7.38;;;8.70;99.90;;;;;;4969483;28;20483;-62
2021/05/15 03:44:20;;;;;;;17.85;9.70;;;8.70;99.90;;;;;;4966989;28;20069;-62
2021/05/15 03:46:46;;;;;;;20.95;9.60;;;8.80;99.90;;;;;;4968047;28;20030;-62
2021/05/15 03:49:12;;;;;;;18.33;9.07;;;8.80;99.90;;;;;;4970206;28;20040;-62
2021/05/15 03:51:39;;;;;;;17.38;8.98;;;8.80;99.90;;;;;;4970309;28;20031;-62
2021/05/15 03:54:05;;;;;;;18.00;8.82;;;8.80;99.90;;;;;;4967388;28;20122;-61
2021/05/15 03:56:31;;;;;;;14.52;8.52;;;8.70;99.90;;;;;;4970386;28;20105;-61
2021/05/15 03:58:57;;;;;;;16.85;8.13;;;8.80;99.90;;;;;;4970435;28;20387;-62
2021/05/15 04:01:23;;;;;;;18.02;8.48;;;8.70;99.90;;;;;;4969217;28;20557;-62
2021/05/15 04:03:48;;;;;;;19.27;7.85;;;8.80;99.90;;;;;;4970384;28;20062;-62
2021/05/15 04:06:15;;;;;;;17.58;7.70;;;8.70;99.90;;;;;;4969278;28;20329;-62
2021/05/15 04:08:41;;;;;;;15.85;7.40;;;8.70;99.90;;;;;;4967783;28;20029;-62
2021/05/15 04:11:08;;;;;;;17.13;8.55;;;8.70;99.90;;;;;;4968127;28;20067;-62
2021/05/15 04:16:19;;;;;;;16.50;7.20;;;8.80;99.90;;;;;;4968533;28;20050;-62
2021/05/15 04:18:45;;;;;;;14.18;6.32;;;8.80;99.90;;;;;;4962128;28;20136;-62
2021/05/15 04:21:11;;;;;;;16.70;7.05;;;8.80;99.90;;;;;;4968406;28;20038;-62
2021/05/15 04:23:36;;;;;;;18.98;6.53;;;8.70;99.90;;;;;;4969415;28;20053;-62
2021/05/15 04:26:03;;;;;;;13.43;7.00;;;8.70;99.90;;;;;;4966998;28;20545;-62
2021/05/15 04:28:30;;;;;;;15.85;6.88;;;8.70;99.90;;;;;;4966904;28;20101;-62
2021/05/15 04:30:56;;;;;;;22.33;7.30;;;8.80;99.90;;;;;;4967426;28;20210;-62
2021/05/15 04:33:24;;;;;;;13.82;7.00;;;8.80;99.90;;;;;;4968276;28;20030;-62
2021/05/15 04:35:55;;;;;;;13.10;6.43;;;8.70;99.90;;;;;;4965802;28;20554;-62
2021/05/15 04:38:22;;;;;;;13.63;6.75;;;8.80;99.90;;;;;;4969820;28;20043;-62
2021/05/15 04:40:48;;;;;;;14.70;6.68;;;8.80;99.90;;;;;;4968333;28;20574;-62
2021/05/15 04:43:14;;;;;;;17.50;6.95;;;8.80;99.90;;;;;;4967756;28;20521;-62
2021/05/15 04:45:43;;;;;;;17.13;7.38;;;8.90;99.90;;;;;;4969715;28;20136;-62
2021/05/15 04:48:10;;;;;;;13.15;6.38;;;8.80;99.90;;;;;;4966777;28;20480;-62
2021/05/15 04:50:37;;;;;;;12.32;6.65;;;8.90;99.90;;;;;;4967339;28;20437;-62
2021/05/15 04:53:03;;;;;;;16.80;7.00;;;8.90;99.90;;;;;;4968956;28;20026;-62
2021/05/15 04:55:30;;;;;;;15.85;6.97;;;8.80;99.90;;;;;;4968743;28;20054;-62
2021/05/15 04:57:58;;;;;;;16.38;7.18;;;8.90;99.90;;;;;;4969194;28;20212;-62
2021/05/15 05:00:24;;;;;;;10.50;5.65;;;8.90;99.90;;;;;;4969193;28;20088;-62
2021/05/15 05:02:50;;;;;;;14.70;6.82;;;8.90;99.90;;;;;;4964922;28;20397;-62
2021/05/15 05:05:16;;;;;;;17.55;6.18;;;8.90;99.90;;;;;;4965095;28;20078;-62
2021/05/15 05:07:42;;;;;;;12.50;5.78;;;8.90;99.90;;;;;;4968230;28;20117;-62
2021/05/15 05:10:09;;;;;;;10.20;5.47;;;9.00;99.90;;;;;;4967596;28;20022;-62
2021/05/15 05:12:35;;;;;;;9.27;5.38;;;9.00;99.90;;;;;;4968538;28;20471;-62
2021/05/15 05:15:01;;;;;;;9.32;6.05;;;9.00;99.90;;;;;;4965930;28;20050;-62
2021/05/15 05:17:27;;;;;;;11.07;5.45;;;9.00;99.90;;;;;;4966044;28;20039;-62
2021/05/15 05:19:53;;;;;;;9.30;5.30;;;9.10;99.90;;;;;;4967269;28;20067;-62
2021/05/15 05:22:19;;;;;;;10.15;5.50;;;9.00;99.90;;;;;;4968006;28;20034;-62
2021/05/15 05:24:46;;;;;;;13.98;6.30;;;9.00;99.90;;;;;;4968233;28;20072;-62
2021/05/15 05:27:13;;;;;;;11.55;5.63;;;9.00;99.90;;;;;;4968648;28;20151;-62
2021/05/15 05:29:39;;;;;;;17.45;6.28;;;9.10;99.90;;;;;;4966441;28;20031;-63
2021/05/15 05:32:08;;;;;;;14.43;6.55;;;9.00;99.90;;;;;;4967450;28;20349;-62
2021/05/15 05:34:35;;;;;;;12.45;6.15;;;9.00;99.90;;;;;;4966796;28;20032;-62
2021/05/15 05:37:02;;;;;;;13.05;5.78;;;9.00;99.90;;;;;;4965896;28;20368;-62
2021/05/15 05:39:27;;;;;;;12.18;5.45;;;9.10;99.90;;;;;;4968430;28;20026;-63
2021/05/15 05:41:53;;;;;;;10.48;5.10;;;9.10;99.90;;;;;;4967277;28;20034;-62
2021/05/15 05:44:19;;;;;;;13.52;5.55;;;9.10;99.90;;;;;;4964602;28;20142;-62
2021/05/15 05:46:45;;;;;;;10.60;5.65;;;9.10;99.90;;;;;;4967038;28;20137;-62
2021/05/15 05:49:10;;;;;;;9.90;5.07;;;9.10;99.90;;;;;;4965620;28;20048;-63
2021/05/15 05:51:36;;;;;;;11.55;5.75;;;9.10;99.90;;;;;;4964202;28;20085;-62
2021/05/15 05:54:02;;;;;;;10.60;5.82;;;9.20;99.90;;;;;;4963969;28;20097;-62
2021/05/15 05:56:28;;;;;;;13.57;5.82;;;9.20;99.90;;;;;;4964747;28;20050;-62
2021/05/15 05:58:55;;;;;;;13.68;6.03;;;9.20;99.90;;;;;;4966378;28;20538;-62
2021/05/15 06:01:21;;;;;;;14.85;4.20;;;9.30;99.90;;;;;;4967622;28;20052;-62
2021/05/15 06:03:47;;;;;;;8.55;3.75;;;9.30;99.90;;;;;;4966623;28;20026;-62
2021/05/15 06:06:13;;;;;;;7.80;3.05;;;9.30;99.90;;;;;;4966686;28;20447;-61
2021/05/15 06:08:38;;;;;;;7.80;3.60;;;9.30;99.90;;;;;;4962690;28;20039;-62
2021/05/15 06:11:06;;;;;;;11.95;3.95;;;9.40;99.90;;;;;;4966331;28;20555;-62
2021/05/15 06:13:32;;;;;;;9.38;3.65;;;9.30;99.90;;;;;;4966033;28;20026;-62
2021/05/15 06:15:58;;;;;;;4.93;3.00;;;9.40;99.90;;;;;;4964733;28;20182;-62
2021/05/15 06:18:24;;;;;;;6.95;3.42;;;9.30;99.90;;;;;;4963237;28;20546;-62
2021/05/15 06:20:50;;;;;;;7.38;3.08;;;9.40;99.90;;;;;;4963582;28;20026;-62
2021/05/15 06:23:16;;;;;;;4.90;3.05;;;9.30;99.90;;;;;;4964647;28;20145;-63
2021/05/15 06:25:42;;;;;;;8.73;3.20;;;9.40;99.90;;;;;;4968499;28;20340;-62
2021/05/15 06:28:08;;;;;;;4.68;2.88;;;9.40;99.90;;;;;;4965781;28;20033;-63
2021/05/15 06:30:34;;;;;;;7.72;3.47;;;9.40;99.90;;;;;;4966640;28;20035;-62
2021/05/15 06:33:00;;;;;;;6.07;2.90;;;9.50;99.90;;;;;;4964728;28;20034;-62
2021/05/15 06:35:27;;;;;;;7.57;3.45;;;9.40;99.90;;;;;;4966283;28;20750;-62
2021/05/15 06:37:53;;;;;;;5.57;2.60;;;9.50;99.90;;;;;;4964889;28;20045;-62
2021/05/15 06:40:19;;;;;;;8.25;3.75;;;9.40;99.90;;;;;;4963517;28;20405;-62
2021/05/15 06:42:45;;;;;;;11.30;3.80;;;9.40;99.90;;;;;;4965624;28;20486;-62
2021/05/15 06:45:11;;;;;;;16.23;4.38;;;9.40;99.90;;;;;;4965176;28;20348;-62
2021/05/15 06:47:38;;;;;;;8.18;3.53;;;9.40;99.90;;;;;;4965394;28;20060;-63
2021/05/15 06:50:05;;;;;;;6.75;3.63;;;9.50;99.90;;;;;;4965181;28;20601;-62
2021/05/15 06:52:31;;;;;;;6.85;3.72;;;9.60;99.90;;;;;;4964077;28;20038;-62
2021/05/15 06:54:57;;;;;;;9.15;2.67;;;9.70;99.90;;;;;;4966901;28;20481;-62
2021/05/15 06:57:23;;;;;;;4.97;2.42;;;9.70;99.90;;;;;;4967606;28;20472;-62
2021/05/15 06:59:49;;;;;;;7.93;3.10;;;9.70;99.90;;;;;;4965751;28;20023;-62
2021/05/15 07:02:15;;;;;;;5.63;2.80;;;9.70;99.90;;;;;;4966690;28;20409;-63
2021/05/15 07:04:40;;;;;;;5.22;3.15;;;9.70;99.90;;;;;;4964683;28;20342;-62
2021/05/15 07:07:06;;;;;;;5.18;2.58;;;9.70;99.90;;;;;;4967214;28;20042;-62
2021/05/15 07:09:32;;;;;;;6.47;2.95;;;9.60;99.90;;;;;;4966039;28;20061;-62
2021/05/15 07:11:58;;;;;;;7.95;3.20;;;9.60;99.90;;;;;;4967917;28;20531;-62
2021/05/15 07:14:24;;;;;;;8.25;3.40;;;9.60;99.90;;;;;;4962526;28;20632;-62
2021/05/15 07:16:50;;;;;;;5.88;2.80;;;9.40;99.90;;;;;;4966063;28;20051;-62
2021/05/15 07:19:16;;;;;;;8.93;3.22;;;9.40;99.90;;;;;;4966109;28;20193;-62
2021/05/15 07:21:42;;;;;;;6.00;3.22;;;9.40;99.90;;;;;;4964808;28;20065;-62
2021/05/15 07:24:09;;;;;;;7.53;3.38;;;9.40;99.90;;;;;;4967839;28;20059;-62
2021/05/15 07:26:35;;;;;;;7.07;3.15;;;9.30;99.90;;;;;;4964648;28;20687;-62
2021/05/15 07:29:02;;;;;;;9.15;3.75;;;9.40;99.90;;;;;;4966560;28;20057;-62
2021/05/15 07:31:28;;;;;;;6.50;2.90;;;9.40;99.90;;;;;;4964865;28;20039;-62
2021/05/15 07:33:54;;;;;;;12.07;3.53;;;9.50;99.90;;;;;;4971811;28;20089;-62
2021/05/15 07:36:20;;;;;;;4.95;3.13;;;9.60;99.90;;;;;;4964632;28;20042;-62
2021/05/15 07:38:47;;;;;;;4.28;2.60;;;9.70;99.90;;;;;;4964719;28;20034;-62
2021/05/15 07:41:17;;;;;;;8.70;3.45;;;9.90;99.90;;;;;;4962304;28;20027;-62
2021/05/15 07:43:43;;;;;;;4.72;2.30;;;10.10;99.90;;;;;;4964550;28;20426;-62
2021/05/15 07:46:08;;;;;;;7.70;2.10;;;10.10;99.90;;;;;;4963531;28;20034;-62
2021/05/15 07:48:41;;;;;;;2.40;1.65;;;10.10;99.90;;;;;;4966585;28;20399;-62
2021/05/15 07:51:09;;;;;;;4.63;2.00;;;10.00;99.90;;;;;;4960158;28;20491;-62
2021/05/15 07:53:35;;;;;;;4.75;2.20;;;10.00;99.90;;;;;;4964487;28;20026;-62
2021/05/15 07:56:02;;;;;;;4.03;2.15;;;9.90;99.90;;;;;;4961225;28;20085;-61
2021/05/15 07:58:28;;;;;;;3.10;1.98;;;9.80;99.90;;;;;;4966166;28;20026;-61
2021/05/15 08:00:53;;;;;;;4.00;1.83;;;9.80;99.90;;;;;;4966078;28;20549;-62
2021/05/15 08:03:20;;;;;;;2.25;1.38;;;10.00;99.90;;;;;;4967917;28;20352;-61
2021/05/15 08:05:46;;;;;;;2.55;1.38;;;10.20;99.90;;;;;;4966150;28;20429;-61
2021/05/15 08:08:11;;;;;;;4.28;1.50;;;10.40;99.90;;;;;;4962272;28;20397;-62
2021/05/15 08:10:38;;;;;;;2.47;1.50;;;10.50;99.90;;;;;;4964044;28;20022;-61
2021/05/15 08:13:04;;;;;;;4.85;1.50;;;10.50;99.90;;;;;;4967963;28;20440;-62
2021/05/15 08:15:30;;;;;;;2.78;1.38;;;10.50;99.90;;;;;;4966815;28;20027;-61
2021/05/15 08:17:56;;;;;;;2.17;1.42;;;10.40;99.90;;;;;;4966932;28;20722;-61
2021/05/15 08:20:23;;;;;;;4.20;2.15;;;10.20;99.90;;;;;;4965748;28;20031;-61
2021/05/15 08:22:49;;;;;;;4.38;1.83;;;10.10;99.90;;;;;;4968009;28;20499;-61
2021/05/15 08:25:16;;;;;;;2.05;1.40;;;10.00;99.90;;;;;;4965181;28;20037;-61
2021/05/15 08:27:43;;;;;;;3.65;1.95;;;10.00;99.90;;;;;;4966130;28;20668;-61
2021/05/15 08:30:18;;;;;;;3.33;2.17;;;10.10;99.90;;;;;;4963238;28;20039;-61
2021/05/15 08:32:45;;;;;;;4.53;2.65;;;10.10;99.90;;;;;;4966800;28;20047;-61
2021/05/15 08:35:12;;;;;;;2.85;1.80;;;10.10;99.90;;;;;;4964273;28;20360;-61
2021/05/15 08:37:38;;;;;;;3.15;1.60;;;10.00;99.90;;;;;;4964733;28;20133;-61
2021/05/15 08:40:07;;;;;;;7.95;1.67;;;10.00;99.90;;;;;;4969103;28;20030;-61
2021/05/15 08:42:36;;;;;;;3.97;1.75;;;9.90;99.90;;;;;;4967947;28;20553;-63
2021/05/15 08:45:04;;;;;;;4.88;1.42;;;9.90;99.90;;;;;;4963761;28;20173;-61
2021/05/15 08:47:30;;;;;;;3.03;1.38;;;9.90;99.90;;;;;;4965287;28;20120;-61
2021/05/15 08:50:00;;;;;;;3.58;1.55;;;9.80;99.90;;;;;;4961437;28;20780;-61
2021/05/15 08:52:26;;;;;;;3.75;1.48;;;9.90;99.90;;;;;;4972666;28;20491;-61
2021/05/15 08:54:52;;;;;;;5.20;1.88;;;9.90;99.90;;;;;;4967823;28;20049;-62
2021/05/15 08:57:19;;;;;;;3.40;1.40;;;9.90;99.90;;;;;;4967940;28;20063;-61
2021/05/15 08:59:48;;;;;;;3.05;1.20;;;9.90;99.90;;;;;;4965157;28;20023;-61
2021/05/15 09:02:15;;;;;;;5.97;1.33;;;9.90;99.90;;;;;;4965068;28;20387;-62
2021/05/15 09:04:41;;;;;;;1.85;1.13;;;10.10;99.90;;;;;;4968816;28;20451;-62
2021/05/15 09:07:09;;;;;;;2.60;1.63;;;10.30;99.90;;;;;;4964059;28;20042;-62
2021/05/15 09:09:35;;;;;;;4.93;1.63;;;10.50;99.90;;;;;;4967946;28;20447;-61
2021/05/15 09:12:01;;;;;;;2.22;1.00;;;10.70;99.90;;;;;;4968355;28;20057;-62
2021/05/15 09:14:27;;;;;;;3.55;1.40;;;10.80;99.90;;;;;;4966735;28;20034;-62
2021/05/15 09:16:56;;;;;;;6.63;1.90;;;11.00;99.90;;;;;;4962186;28;20038;-62
2021/05/15 09:19:25;;;;;;;2.72;1.45;;;11.00;99.90;;;;;;4964422;28;20026;-62
2021/05/15 09:22:03;;;;;;;3.38;1.35;;;11.10;99.90;;;;;;4965951;28;20506;-62
2021/05/15 09:24:37;;;;;;;2.25;1.13;;;11.00;99.90;;;;;;4965489;28;20047;-62
2021/05/15 09:27:11;;;;;;;4.90;1.50;;;11.10;99.90;;;;;;4964637;28;20146;-63
2021/05/15 09:29:44;;;;;;;2.60;1.13;;;11.00;99.90;;;;;;4965841;28;20524;-63
2021/05/15 09:32:11;;;;;;;6.25;1.55;;;11.00;99.90;;;;;;4966275;28;20086;-63
2021/05/15 09:34:48;;;;;;;4.07;1.38;;;11.00;99.90;;;;;;4965132;28;20022;-62
2021/05/15 09:37:34;;;;;;;2.65;1.00;;;11.20;99.90;;;;;;4963036;28;20671;-63
2021/05/15 09:40:12;;;;;;;2.83;1.10;;;11.20;99.90;;;;;;4965886;28;20640;-63
2021/05/15 09:43:00;;;;;;;3.30;1.02;;;11.40;99.90;;;;;;4969321;28;20049;-62
2021/05/15 09:45:26;;;;;;;1.88;1.30;;;11.50;99.90;;;;;;4966432;28;20033;-63
2021/05/15 09:47:57;;;;;;;2.17;1.27;;;11.50;99.90;;;;;;4968438;28;20493;-63
2021/05/15 09:50:29;;;;;;;11.25;2.33;;;11.60;99.90;;;;;;4968051;28;20034;-61
2021/05/15 09:53:11;;;;;;;1.75;1.20;;;11.40;99.90;;;;;;4965243;28;20038;-61
2021/05/15 09:55:42;;;;;;;1.70;1.20;;;11.50;99.90;;;;;;4967578;28;20069;-61
2021/05/15 09:58:09;;;;;;;2.78;1.25;;;11.30;99.90;;;;;;4968387;28;20545;-61
2021/05/15 10:00:50;;;;;;;3.13;1.67;;;11.30;99.90;;;;;;4964969;28;20057;-60
2021/05/15 10:03:32;;;;;;;3.17;1.60;;;11.10;99.90;;;;;;4966415;28;20173;-63
2021/05/15 10:06:00;;;;;;;3.17;1.67;;;11.00;99.90;;;;;;4966967;28;20039;-63
2021/05/15 10:08:26;;;;;;;3.13;1.38;;;11.00;99.90;;;;;;4965768;28;20478;-63
2021/05/15 10:10:53;;;;;;;3.75;1.60;;;11.10;99.90;;;;;;4963713;28;20045;-61
2021/05/15 10:13:22;;;;;;;3.45;1.48;;;11.10;99.90;;;;;;4967163;28;20027;-61
2021/05/15 10:15:48;;;;;;;3.35;1.77;;;11.30;99.90;;;;;;4969316;28;20038;-63
2021/05/15 10:18:15;;;;;;;6.35;1.98;;;11.20;99.90;;;;;;4962815;28;20038;-63
2021/05/15 10:20:41;;;;;;;1.65;1.30;;;11.00;99.90;;;;;;4965916;28;20041;-63
2021/05/15 10:23:23;;;;;;;2.28;1.20;;;11.00;99.90;;;;;;4965324;28;20085;-63
2021/05/15 10:25:59;;;;;;;2.83;0.82;;;11.00;99.90;;;;;;4965121;28;20097;-63
2021/05/15 10:28:27;;;;;;;2.15;1.10;;;11.00;99.90;;;;;;4965166;28;20045;-64
2021/05/15 10:31:06;;;;;;;1.85;1.30;;;11.10;99.90;;;;;;4967076;28;20034;-63
2021/05/15 10:33:33;;;;;;;3.20;1.60;;;11.10;99.90;;;;;;4965630;28;20446;-62
2021/05/15 10:35:59;;;;;;;3.10;1.60;;;11.10;99.90;;;;;;4966315;28;20061;-63
2021/05/15 10:38:51;;;;;;;4.88;1.17;;;11.10;99.90;;;;;;4965791;28;20121;-63
2021/05/15 10:41:19;;;;;;;1.63;1.00;;;11.30;99.90;;;;;;4967254;28;20043;-63
2021/05/15 10:43:48;;;;;;;4.53;1.13;;;11.30;99.90;;;;;;4965478;28;20133;-63
2021/05/15 10:46:26;;;;;;;3.28;1.00;;;11.20;99.90;;;;;;4966787;28;20042;-62
2021/05/15 10:48:59;;;;;;;6.95;1.55;;;11.10;99.90;;;;;;4966744;28;20034;-63
2021/05/15 10:51:45;;;;;;;3.22;1.45;;;11.10;99.90;;;;;;4967173;28;20031;-63
2021/05/15 10:54:14;;;;;;;3.35;1.23;;;11.00;99.90;;;;;;4967270;28;20034;-62
2021/05/15 10:56:40;;;;;;;5.40;1.30;;;10.80;99.90;;;;;;4965629;28;20034;-63
2021/05/15 10:59:16;;;;;;;1.77;0.98;;;10.70;99.90;;;;;;4966773;28;20141;-63
2021/05/15 11:01:53;;;;;;;2.78;1.13;;;10.70;99.90;;;;;;4965280;28;20636;-63
2021/05/15 11:04:29;;;;;;;4.43;1.52;;;10.50;99.90;;;;;;4967270;28;20034;-63
2021/05/15 11:07:07;;;;;;;1.55;0.95;;;10.60;99.90;;;;;;4966175;28;20383;-63
2021/05/15 11:09:36;;;;;;;5.03;1.40;;;10.60;99.90;;;;;;4965972;28;20445;-64
2021/05/15 11:12:09;;;;;;;2.92;1.17;;;10.60;99.90;;;;;;4965008;28;20030;-63
2021/05/15 11:14:39;;;;;;;2.38;1.30;;;10.60;99.90;;;;;;4966157;28;20031;-63
2021/05/15 11:17:11;;;;;;;5.88;1.10;;;10.60;99.90;;;;;;4966141;28;20074;-63
2021/05/15 11:19:38;;;;;;;5.07;1.83;;;10.70;99.90;;;;;;4966195;28;20035;-63
2021/05/15 11:22:05;;;;;;;4.10;1.50;;;10.50;99.90;;;;;;4967514;28;20432;-63
2021/05/15 11:24:36;;;;;;;3.80;1.10;;;10.50;99.90;;;;;;4965532;28;20066;-63
2021/05/15 11:27:23;;;;;;;1.73;1.05;;;10.40;99.90;;;;;;4959627;28;20034;-63
2021/05/15 11:30:05;;;;;;;3.25;1.10;;;10.40;99.90;;;;;;4965161;28;20045;-63
2021/05/15 11:32:31;;;;;;;4.35;1.27;;;10.50;99.90;;;;;;4964819;28;20109;-63
2021/05/15 11:34:57;;;;;;;3.50;1.10;;;10.70;99.90;;;;;;4963796;28;20030;-63
2021/05/15 11:37:23;;;;;;;6.07;2.00;;;11.00;99.90;;;;;;4969123;28;20082;-63
2021/05/15 11:39:52;;;;;;;2.75;1.20;;;11.30;99.90;;;;;;4965051;28;20144;-63
2021/05/15 11:42:19;;;;;;;16.23;3.53;;;11.50;99.90;;;;;;4968201;28;20470;-63
2021/05/15 11:44:52;;;;;;;1.80;1.13;;;11.50;99.90;;;;;;4970409;28;20619;-64
2021/05/15 11:47:20;;;;;;;2.33;1.15;;;11.30;99.90;;;;;;4968809;28;20393;-63
2021/05/15 11:49:55;;;;;;;6.93;2.17;;;11.20;99.90;;;;;;4969501;28;20023;-64
2021/05/15 11:52:29;;;;;;;5.30;1.15;;;11.30;99.90;;;;;;4970063;28;20600;-63
2021/05/15 11:54:55;;;;;;;6.25;1.40;;;11.20;99.90;;;;;;4971774;28;20047;-63
2021/05/15 11:57:26;;;;;;;2.20;1.00;;;11.20;99.90;;;;;;4965699;28;20046;-63
2021/05/15 11:59:53;;;;;;;2.78;0.90;;;11.00;99.90;;;;;;4970038;28;20033;-63
2021/05/15 12:02:18;;;;;;;2.13;0.80;;;10.90;99.90;;;;;;4966086;28;20038;-63
2021/05/15 12:04:45;;;;;;;3.38;1.00;;;10.90;99.90;;;;;;4966927;28;20037;-63
2021/05/15 12:07:15;;;;;;;4.97;1.33;;;10.80;99.90;;;;;;4968123;28;20046;-63
2021/05/15 12:09:41;;;;;;;4.40;1.20;;;10.80;99.90;;;;;;4968528;28;20031;-64
2021/05/15 12:12:10;;;;;;;3.90;0.90;;;10.80;99.90;;;;;;4968204;28;20403;-63
2021/05/15 12:14:42;;;;;;;6.13;1.20;;;10.80;99.90;;;;;;4966351;28;20470;-63
2021/05/15 12:17:13;;;;;;;2.28;1.20;;;10.80;99.90;;;;;;4967583;28;20038;-65
2021/05/15 12:19:39;;;;;;;1.98;0.90;;;10.90;99.90;;;;;;4965904;28;20026;-64
2021/05/15 12:22:10;;;;;;;2.38;0.82;;;11.00;99.90;;;;;;4965943;28;20045;-64
2021/05/15 12:24:42;;;;;;;3.03;1.10;;;11.20;99.90;;;;;;4968265;28;20042;-63
2021/05/15 12:27:18;;;;;;;2.35;1.10;;;11.30;99.90;;;;;;4966137;28;20041;-67
2021/05/15 12:29:45;;;;;;;1.05;0.68;;;11.40;99.90;;;;;;4996702;28;20517;-64
2021/05/15 12:32:11;;;;;;;2.45;0.82;;;11.50;99.90;;;;;;4959712;28;20455;-64
2021/05/15 12:34:38;;;;;;;1.92;1.05;;;11.40;99.90;;;;;;4963916;28;20034;-64
2021/05/15 12:37:15;;;;;;;5.88;1.10;;;11.30;99.90;;;;;;4966953;28;20566;-63
2021/05/15 12:39:41;;;;;;;3.13;1.00;;;11.30;99.90;;;;;;4970581;28;20145;-63
2021/05/15 12:42:06;;;;;;;1.65;0.93;;;11.20;99.90;;;;;;4968546;28;20046;-63
2021/05/15 12:44:40;;;;;;;3.47;1.05;;;11.10;99.90;;;;;;4969561;28;20133;-64
2021/05/15 12:47:07;;;;;;;2.38;1.05;;;11.10;99.90;;;;;;4968288;28;20062;-64
2021/05/15 12:49:41;;;;;;;2.28;1.00;;;11.20;99.90;;;;;;4969722;28;20042;-63
2021/05/15 12:52:20;;;;;;;1.98;0.90;;;11.40;99.90;;;;;;4967508;28;20173;-64
2021/05/15 12:54:47;;;;;;;5.55;1.30;;;11.40;99.90;;;;;;4969091;28;20499;-64